KLEW/LEW METAR and TAF weather

Enter ICAO airport designator
Station Type Date Time Source
KLEW METAR 2024/02/26 15:56 UTC NOAA

KLEW 261556Z AUTO 18006KT 10SM CLR 02/M06 A2993 RMK AO2 SLP145 T00221061 FZRANO


Station Type Date Time Source
KLEW Decoded METAR 2024/02/26 15:56 UTC NOAA

Auburn-Lewiston, ME, United States (KLEW) 44-03N 070-17W
Feb 26, 2024 - 10:56 AM EST / 2024.02.26 1556 UTC
Wind: from the S (180 degrees) at 7 MPH (6 KT):0
Visibility: 10 mile(s):0
Sky conditions: clear
Temperature: 36.0 F (2.2 C)
Dew Point: 21.0 F (-6.1 C)
Relative Humidity: 54%
Pressure (altimeter): 29.93 in. Hg (1013 hPa)
ob: KLEW 261556Z AUTO 18006KT 10SM CLR 02/M06 A2993 RMK AO2 SLP145 T00221061 FZRANO
cycle: 16

Station Type Date Time Source
KLEW TAF UTC NOAA

Error!

Example: see airport list